Time;durP1;ratioP1;P1;durP2;ratioP2;P2;SDS_P1;SDS_P2;PMS_P1;PMS_P2;Temp;Humidity;BMP_temperature;BMP_pressure;BME280_temperature;BME280_humidity;BME280_pressure;Samples;Min_cycle;Max_cycle;Signal;HPM_P1;HPM_P2
2021/06/06 00:00:13;;;;;;;6.00;5.40;;;15.90;99.90;;;;;;5046205;28;20499;-71
2021/06/06 00:02:39;;;;;;;7.20;5.80;;;15.90;99.90;;;;;;5046591;28;20470;-71
2021/06/06 00:05:06;;;;;;;4.97;4.47;;;15.90;99.90;;;;;;5046872;28;20463;-71
2021/06/06 00:07:33;;;;;;;5.63;4.87;;;15.90;99.90;;;;;;5046373;28;20511;-71
2021/06/06 00:10:01;;;;;;;5.10;4.67;;;15.90;99.90;;;;;;5045893;28;20463;-72
2021/06/06 00:12:27;;;;;;;6.10;4.83;;;15.90;99.90;;;;;;5046393;28;20562;-72
2021/06/06 00:14:55;;;;;;;5.10;4.03;;;15.90;99.90;;;;;;5046454;28;20516;-71
2021/06/06 00:17:22;;;;;;;4.57;4.07;;;15.90;99.90;;;;;;5046022;28;20629;-71
2021/06/06 00:19:49;;;;;;;6.37;5.03;;;15.90;99.90;;;;;;5046112;28;20582;-71
2021/06/06 00:22:15;;;;;;;6.00;4.70;;;15.80;99.90;;;;;;5046264;28;20459;-72
2021/06/06 00:24:41;;;;;;;6.33;4.10;;;15.80;99.90;;;;;;5046196;28;20467;-72
2021/06/06 00:27:11;;;;;;;5.20;4.70;;;15.80;99.90;;;;;;5046548;28;20483;-72
2021/06/06 00:29:38;;;;;;;4.93;4.47;;;15.80;99.90;;;;;;5045961;28;20475;-71
2021/06/06 00:32:04;;;;;;;5.80;4.80;;;15.80;99.90;;;;;;5045850;28;20533;-72
2021/06/06 00:34:31;;;;;;;8.60;4.50;;;15.80;99.90;;;;;;5046944;28;20459;-71
2021/06/06 00:36:58;;;;;;;5.73;4.97;;;15.80;99.90;;;;;;5047553;28;20483;-72
2021/06/06 00:39:24;;;;;;;5.00;4.50;;;15.80;99.90;;;;;;5047645;28;20834;-72
2021/06/06 00:41:51;;;;;;;7.30;4.23;;;15.80;99.90;;;;;;5047735;28;20460;-72
2021/06/06 00:44:19;;;;;;;4.67;4.17;;;15.80;99.90;;;;;;5047573;28;20464;-72
2021/06/06 00:46:45;;;;;;;4.10;3.70;;;15.80;99.90;;;;;;5047511;28;20459;-71
2021/06/06 00:49:11;;;;;;;4.70;4.30;;;15.80;99.90;;;;;;5047382;28;20460;-72
2021/06/06 00:51:43;;;;;;;3.97;3.57;;;15.80;99.90;;;;;;5047420;28;20564;-72
2021/06/06 00:54:13;;;;;;;6.53;4.80;;;15.80;99.90;;;;;;5047718;28;20489;-71
2021/06/06 00:56:40;;;;;;;8.30;4.80;;;15.80;99.90;;;;;;5047283;28;20536;-72
2021/06/06 00:59:07;;;;;;;4.90;4.20;;;15.70;99.90;;;;;;5047213;28;20462;-74
2021/06/06 01:01:35;;;;;;;6.13;5.53;;;15.70;99.90;;;;;;5047458;28;20463;-71
2021/06/06 01:04:03;;;;;;;5.33;4.50;;;15.80;99.90;;;;;;5047121;28;20467;-72
2021/06/06 01:06:33;;;;;;;5.40;4.77;;;15.70;99.90;;;;;;5047252;28;20463;-71
2021/06/06 01:09:00;;;;;;;5.23;4.60;;;15.80;99.90;;;;;;5047122;28;20467;-72
2021/06/06 01:11:36;;;;;;;6.90;5.60;;;15.70;99.90;;;;;;5047296;28;20491;-72
2021/06/06 01:14:07;;;;;;;5.00;4.50;;;15.70;99.90;;;;;;5049613;28;20469;-72
2021/06/06 01:16:38;;;;;;;5.50;4.80;;;15.70;99.90;;;;;;5049413;28;20463;-72
2021/06/06 01:19:10;;;;;;;4.57;4.17;;;15.70;99.90;;;;;;5048513;28;20467;-72
2021/06/06 01:21:49;;;;;;;5.43;4.93;;;15.70;99.90;;;;;;5049655;28;20545;-72
2021/06/06 01:24:21;;;;;;;4.60;4.20;;;15.70;99.90;;;;;;5055340;28;20482;-72
2021/06/06 01:26:50;;;;;;;5.37;4.67;;;15.70;99.90;;;;;;5069898;28;20458;-72
2021/06/06 01:29:28;;;;;;;5.37;4.87;;;15.70;99.90;;;;;;5069862;28;20840;-72
2021/06/06 01:31:59;;;;;;;4.90;4.50;;;15.70;99.90;;;;;;5069630;28;20490;-72
2021/06/06 01:34:28;;;;;;;5.37;4.70;;;15.70;99.90;;;;;;5070099;28;20458;-72
2021/06/06 01:36:58;;;;;;;5.40;4.90;;;15.70;99.90;;;;;;5069510;28;20482;-72
2021/06/06 01:39:29;;;;;;;5.90;5.10;;;15.70;99.90;;;;;;5069789;28;20493;-72
2021/06/06 01:42:00;;;;;;;5.20;4.70;;;15.70;99.90;;;;;;5069594;28;20458;-71
2021/06/06 01:44:31;;;;;;;5.03;4.20;;;15.70;99.90;;;;;;5069802;28;20466;-71
2021/06/06 01:47:01;;;;;;;5.20;4.70;;;15.60;99.90;;;;;;5069411;28;20490;-72
2021/06/06 01:49:28;;;;;;;5.17;4.67;;;15.60;99.90;;;;;;5069491;28;20463;-71
2021/06/06 01:51:58;;;;;;;8.40;5.30;;;15.60;99.90;;;;;;5069878;28;20481;-71
2021/06/06 01:54:29;;;;;;;6.77;5.40;;;15.60;99.90;;;;;;5069796;28;20467;-71
2021/06/06 01:56:56;;;;;;;5.53;4.50;;;15.60;99.90;;;;;;5069519;28;20489;-71
2021/06/06 01:59:26;;;;;;;5.73;5.13;;;15.60;99.90;;;;;;5069294;28;20462;-71
2021/06/06 02:01:53;;;;;;;7.40;4.50;;;15.60;99.90;;;;;;5069538;28;20993;-71
2021/06/06 02:04:20;;;;;;;7.37;5.40;;;15.60;99.90;;;;;;5069659;28;20480;-71
2021/06/06 02:06:52;;;;;;;6.10;5.50;;;15.60;99.90;;;;;;5069445;28;21063;-71
2021/06/06 02:09:23;;;;;;;5.87;5.30;;;15.50;99.90;;;;;;5069534;28;20829;-72
2021/06/06 02:11:53;;;;;;;6.10;5.40;;;15.50;99.90;;;;;;5069587;28;20552;-73
2021/06/06 02:14:24;;;;;;;6.20;5.60;;;15.40;99.90;;;;;;5069719;28;20494;-72
2021/06/06 02:16:54;;;;;;;6.30;5.37;;;15.40;99.90;;;;;;5069328;28;20466;-71
2021/06/06 02:19:24;;;;;;;5.50;5.00;;;15.40;99.90;;;;;;5069404;28;21024;-71
2021/06/06 02:21:51;;;;;;;5.23;4.73;;;15.30;99.90;;;;;;5069570;28;20946;-72
2021/06/06 02:24:17;;;;;;;6.50;5.63;;;15.30;99.90;;;;;;5069935;28;20473;-72
2021/06/06 02:26:48;;;;;;;8.60;4.80;;;15.30;99.90;;;;;;5069844;28;20462;-71
2021/06/06 02:29:23;;;;;;;5.30;4.80;;;15.30;99.90;;;;;;5069347;28;20941;-71
2021/06/06 02:31:56;;;;;;;8.27;6.07;;;15.30;99.90;;;;;;5069415;28;20493;-72
2021/06/06 02:34:29;;;;;;;8.30;5.90;;;15.30;99.90;;;;;;5071128;28;20454;-74
2021/06/06 02:37:01;;;;;;;6.47;5.63;;;15.30;99.90;;;;;;5072790;28;20479;-71
2021/06/06 02:39:31;;;;;;;5.93;5.33;;;15.30;99.90;;;;;;5072794;28;20458;-71
2021/06/06 02:42:03;;;;;;;5.40;4.60;;;15.30;99.90;;;;;;5072938;28;21075;-71
2021/06/06 02:44:38;;;;;;;7.40;5.40;;;15.30;99.90;;;;;;5072820;28;20966;-74
2021/06/06 02:47:05;;;;;;;6.20;5.60;;;15.30;99.90;;;;;;5096275;22;20499;-71
2021/06/06 02:49:35;;;;;;;5.90;5.07;;;15.30;99.90;;;;;;5050508;28;20467;-70
2021/06/06 02:52:06;;;;;;;5.83;5.33;;;15.30;99.90;;;;;;5051802;28;20489;-70
2021/06/06 02:54:36;;;;;;;6.00;5.40;;;15.30;99.90;;;;;;5052867;28;20931;-70
2021/06/06 02:57:07;;;;;;;8.03;5.50;;;15.30;99.90;;;;;;5052381;28;20463;-70
2021/06/06 02:59:39;;;;;;;6.97;5.73;;;15.30;99.90;;;;;;5052311;28;20468;-70
2021/06/06 03:02:08;;;;;;;5.67;4.97;;;15.30;99.90;;;;;;5052367;28;20543;-70
2021/06/06 03:04:38;;;;;;;7.20;5.40;;;15.30;99.90;;;;;;5052673;28;20827;-70
2021/06/06 03:07:07;;;;;;;7.07;4.53;;;15.30;99.90;;;;;;5052067;28;20455;-71
2021/06/06 03:09:33;;;;;;;5.30;4.20;;;15.30;99.90;;;;;;5052271;28;20808;-70
2021/06/06 03:12:05;;;;;;;4.77;4.20;;;15.30;99.90;;;;;;5052170;28;20515;-70
2021/06/06 03:14:35;;;;;;;6.30;5.07;;;15.30;99.90;;;;;;5052380;28;20516;-70
2021/06/06 03:17:06;;;;;;;5.03;4.53;;;15.30;99.90;;;;;;5052044;28;20470;-70
2021/06/06 03:19:35;;;;;;;5.67;5.07;;;15.20;99.90;;;;;;5051945;28;20466;-70
2021/06/06 03:22:04;;;;;;;7.60;5.50;;;15.30;99.90;;;;;;5052206;28;20460;-71
2021/06/06 03:24:35;;;;;;;5.07;4.57;;;15.30;99.90;;;;;;5052023;28;20455;-70
2021/06/06 03:27:02;;;;;;;8.40;4.90;;;15.20;99.90;;;;;;5051933;28;20471;-70
2021/06/06 03:29:32;;;;;;;5.97;4.53;;;15.20;99.90;;;;;;5051711;28;20467;-70
2021/06/06 03:32:04;;;;;;;7.47;5.13;;;15.20;99.90;;;;;;5051968;28;20491;-71
2021/06/06 03:34:30;;;;;;;9.33;5.20;;;15.20;99.90;;;;;;5052031;28;20455;-71
2021/06/06 03:36:56;;;;;;;7.03;4.80;;;15.20;99.90;;;;;;5051697;28;20490;-71
2021/06/06 03:39:27;;;;;;;6.53;4.50;;;15.20;99.90;;;;;;5051381;28;20464;-71
2021/06/06 03:41:55;;;;;;;5.47;4.60;;;15.20;99.90;;;;;;5051806;28;20451;-71
2021/06/06 03:44:22;;;;;;;8.93;5.10;;;15.20;99.90;;;;;;5051688;28;20491;-71
2021/06/06 03:46:48;;;;;;;6.00;4.63;;;15.20;99.90;;;;;;5050550;28;20474;-71
2021/06/06 03:49:17;;;;;;;5.40;4.57;;;15.20;99.90;;;;;;5051128;28;20851;-71
2021/06/06 03:51:45;;;;;;;8.23;4.60;;;15.20;99.90;;;;;;5051568;28;21068;-71
2021/06/06 03:54:12;;;;;;;6.50;4.03;;;15.20;99.90;;;;;;5051359;28;21016;-71
2021/06/06 03:56:40;;;;;;;4.73;3.97;;;15.10;99.90;;;;;;5051589;28;20521;-71
2021/06/06 03:59:07;;;;;;;3.97;3.67;;;15.20;99.90;;;;;;5050912;28;20476;-71
2021/06/06 04:01:33;;;;;;;5.47;4.50;;;15.20;99.90;;;;;;5051873;28;20455;-71
2021/06/06 04:04:00;;;;;;;5.63;3.93;;;15.10;99.90;;;;;;5065425;28;20470;-70
2021/06/06 04:06:27;;;;;;;7.67;4.87;;;15.10;99.90;;;;;;5063775;28;20517;-70
2021/06/06 04:08:54;;;;;;;5.93;3.90;;;15.10;99.90;;;;;;5051021;28;20830;-71
2021/06/06 04:11:21;;;;;;;4.43;3.83;;;15.10;99.90;;;;;;5050948;28;20487;-71
2021/06/06 04:13:47;;;;;;;8.77;4.60;;;15.20;99.90;;;;;;5051228;28;20851;-71
2021/06/06 04:16:14;;;;;;;6.10;4.40;;;15.10;99.90;;;;;;5050938;28;20836;-70
2021/06/06 04:18:40;;;;;;;5.57;4.50;;;15.20;99.90;;;;;;5050714;28;20483;-71
2021/06/06 04:21:08;;;;;;;5.50;3.80;;;15.20;99.90;;;;;;5050968;28;20455;-70
2021/06/06 04:23:36;;;;;;;5.47;4.03;;;15.10;99.90;;;;;;5051177;28;20459;-70
2021/06/06 04:26:04;;;;;;;5.10;3.87;;;15.10;99.90;;;;;;5050892;28;20459;-71
2021/06/06 04:28:30;;;;;;;5.53;3.83;;;15.10;99.90;;;;;;5050594;28;20486;-71
2021/06/06 04:30:57;;;;;;;8.13;4.87;;;15.10;99.90;;;;;;5050886;28;20475;-70
2021/06/06 04:33:24;;;;;;;6.50;4.70;;;15.10;99.90;;;;;;5050626;28;20464;-70
2021/06/06 04:35:50;;;;;;;8.57;4.53;;;15.10;99.90;;;;;;5050676;28;20467;-70
2021/06/06 04:38:20;;;;;;;6.80;4.40;;;15.10;99.90;;;;;;5050076;28;20490;-71
2021/06/06 04:40:49;;;;;;;6.17;4.67;;;15.00;99.90;;;;;;5050906;28;20659;-70
2021/06/06 04:43:15;;;;;;;9.37;4.90;;;15.00;99.90;;;;;;5050560;28;20467;-70
2021/06/06 04:45:41;;;;;;;5.80;4.47;;;15.00;99.90;;;;;;5050636;28;20463;-70
2021/06/06 04:48:14;;;;;;;7.90;5.50;;;15.00;99.90;;;;;;5050013;28;20496;-70
2021/06/06 04:50:43;;;;;;;9.23;5.40;;;15.00;99.90;;;;;;5050451;28;20485;-70
2021/06/06 04:53:09;;;;;;;10.47;5.23;;;14.90;99.90;;;;;;5050476;28;20537;-70
2021/06/06 04:55:35;;;;;;;10.60;6.33;;;14.90;99.90;;;;;;5050274;28;21017;-70
2021/06/06 04:58:04;;;;;;;8.70;5.20;;;14.90;99.90;;;;;;5049743;28;20558;-70
2021/06/06 05:00:33;;;;;;;9.57;6.10;;;14.90;99.90;;;;;;5050237;28;20466;-70
2021/06/06 05:02:59;;;;;;;11.73;5.77;;;14.90;99.90;;;;;;5050276;28;20467;-70
2021/06/06 05:05:25;;;;;;;9.40;6.30;;;14.90;99.90;;;;;;5050228;28;20524;-70
2021/06/06 05:07:54;;;;;;;13.13;6.83;;;14.90;99.90;;;;;;5049968;28;20487;-70
2021/06/06 05:10:21;;;;;;;8.47;6.03;;;14.90;99.90;;;;;;5049967;28;20479;-70
2021/06/06 05:12:48;;;;;;;12.57;5.70;;;15.00;99.90;;;;;;5050303;28;20460;-70
2021/06/06 05:15:17;;;;;;;8.23;5.20;;;15.00;99.90;;;;;;5050130;28;20464;-70
2021/06/06 05:17:43;;;;;;;9.27;5.40;;;15.00;99.90;;;;;;5050001;28;20494;-71
2021/06/06 05:20:12;;;;;;;9.30;5.13;;;15.00;99.90;;;;;;5049715;28;20466;-70
2021/06/06 05:22:38;;;;;;;13.00;6.23;;;14.90;99.90;;;;;;5050251;28;20509;-70
2021/06/06 05:25:06;;;;;;;7.40;4.80;;;14.90;99.90;;;;;;5049842;28;20455;-70
2021/06/06 05:27:32;;;;;;;10.20;5.50;;;14.90;99.90;;;;;;5050069;28;20494;-70
2021/06/06 05:29:59;;;;;;;8.17;5.70;;;14.90;99.90;;;;;;5049754;28;20978;-70
2021/06/06 05:32:26;;;;;;;8.77;5.60;;;14.90;99.90;;;;;;5049896;28;20564;-70
2021/06/06 05:34:52;;;;;;;10.17;6.93;;;14.90;99.90;;;;;;5050083;28;20455;-70
2021/06/06 05:37:19;;;;;;;8.67;6.00;;;14.90;99.90;;;;;;5049674;28;20544;-70
2021/06/06 05:39:45;;;;;;;8.37;5.73;;;14.90;99.90;;;;;;5049610;28;20977;-71
2021/06/06 05:42:12;;;;;;;10.30;6.70;;;14.90;99.90;;;;;;5049694;28;20473;-71
2021/06/06 05:44:38;;;;;;;8.50;5.33;;;14.90;99.90;;;;;;5049970;28;20466;-70
2021/06/06 05:47:06;;;;;;;10.00;6.50;;;14.90;99.90;;;;;;5049386;28;20459;-70
2021/06/06 05:49:34;;;;;;;9.07;6.03;;;14.90;99.90;;;;;;5049656;28;20459;-71
2021/06/06 05:52:00;;;;;;;8.97;6.83;;;14.90;99.90;;;;;;5049808;28;20479;-70
2021/06/06 05:54:26;;;;;;;9.60;6.53;;;14.90;99.90;;;;;;5049691;28;20471;-70
2021/06/06 05:56:52;;;;;;;12.90;7.90;;;14.90;99.90;;;;;;5049893;28;20467;-70
2021/06/06 05:59:18;;;;;;;12.23;7.80;;;14.90;99.90;;;;;;5049064;28;21022;-70
2021/06/06 06:01:45;;;;;;;10.60;6.93;;;14.90;99.90;;;;;;5049781;28;20455;-70
2021/06/06 06:04:11;;;;;;;9.20;7.07;;;14.90;99.90;;;;;;5049451;28;20516;-70
2021/06/06 06:06:39;;;;;;;10.00;6.77;;;14.90;99.90;;;;;;5049750;28;20467;-70
2021/06/06 06:09:05;;;;;;;11.53;7.00;;;14.90;99.90;;;;;;5050483;28;20474;-70
2021/06/06 06:11:32;;;;;;;10.07;7.17;;;14.90;99.90;;;;;;5053402;28;20490;-70
2021/06/06 06:13:58;;;;;;;13.07;8.20;;;14.90;99.90;;;;;;5053478;28;20474;-70
2021/06/06 06:16:28;;;;;;;11.43;7.60;;;14.90;99.90;;;;;;5053234;28;20467;-70
2021/06/06 06:18:55;;;;;;;13.77;7.47;;;14.90;99.90;;;;;;5053120;28;20506;-70
2021/06/06 06:21:23;;;;;;;10.23;7.83;;;14.90;99.90;;;;;;5053170;28;20459;-70
2021/06/06 06:23:51;;;;;;;12.47;7.33;;;14.90;99.90;;;;;;5053170;28;20463;-70
2021/06/06 06:26:18;;;;;;;11.90;8.17;;;15.00;99.90;;;;;;5052682;28;20459;-70
2021/06/06 06:28:46;;;;;;;11.13;8.00;;;15.00;99.90;;;;;;5046029;28;20475;-70
2021/06/06 06:31:12;;;;;;;12.23;7.77;;;15.00;99.90;;;;;;5042339;28;20479;-70
2021/06/06 06:33:39;;;;;;;9.70;7.40;;;15.00;99.90;;;;;;5042253;28;20460;-71
2021/06/06 06:36:05;;;;;;;10.57;8.00;;;15.00;99.90;;;;;;5040583;28;20464;-70
2021/06/06 06:38:33;;;;;;;9.53;7.00;;;15.00;99.90;;;;;;5042130;28;20475;-70
2021/06/06 06:41:01;;;;;;;7.37;6.23;;;15.10;99.90;;;;;;5041869;28;21041;-70
2021/06/06 06:43:27;;;;;;;7.63;6.17;;;15.10;99.90;;;;;;5040472;28;20452;-70
2021/06/06 06:45:54;;;;;;;8.77;6.07;;;15.10;99.90;;;;;;5042128;28;20462;-70
2021/06/06 06:48:23;;;;;;;7.27;5.53;;;15.10;99.90;;;;;;5041716;28;20483;-70
2021/06/06 06:50:50;;;;;;;6.03;5.43;;;15.10;99.90;;;;;;5040771;28;20460;-70
2021/06/06 06:53:17;;;;;;;6.03;5.17;;;15.10;99.90;;;;;;5048612;28;20489;-70
2021/06/06 06:55:43;;;;;;;5.77;5.20;;;15.10;99.90;;;;;;5047747;28;20467;-70
2021/06/06 06:58:11;;;;;;;4.97;4.50;;;15.10;99.90;;;;;;5039931;28;20509;-71
2021/06/06 07:00:40;;;;;;;5.53;5.00;;;15.00;99.90;;;;;;5041421;28;20459;-70
2021/06/06 07:03:08;;;;;;;4.70;4.30;;;15.10;99.90;;;;;;5042042;28;20486;-71
2021/06/06 07:05:34;;;;;;;7.40;5.77;;;15.10;99.90;;;;;;5040935;28;20461;-71
2021/06/06 07:08:01;;;;;;;6.30;5.40;;;15.10;99.90;;;;;;5040288;28;20574;-70
2021/06/06 07:10:32;;;;;;;7.47;6.47;;;15.10;99.90;;;;;;5042112;28;20466;-71
2021/06/06 07:12:58;;;;;;;7.20;6.30;;;15.00;99.90;;;;;;5041165;28;20448;-71
2021/06/06 07:15:27;;;;;;;7.40;6.40;;;15.00;99.90;;;;;;5039810;28;20452;-70
2021/06/06 07:17:53;;;;;;;7.60;6.50;;;15.00;99.90;;;;;;5041238;28;20494;-71
2021/06/06 07:20:22;;;;;;;9.43;7.40;;;15.10;99.90;;;;;;5040779;28;20503;-71
2021/06/06 07:22:49;;;;;;;9.87;7.83;;;15.10;99.90;;;;;;5040147;28;20452;-71
2021/06/06 07:25:17;;;;;;;8.03;7.23;;;15.10;99.90;;;;;;5040914;28;20517;-71
2021/06/06 07:27:44;;;;;;;9.23;7.70;;;15.10;99.90;;;;;;5041517;28;20856;-71
2021/06/06 07:30:14;;;;;;;8.30;7.30;;;15.10;99.90;;;;;;5039817;28;20464;-71
2021/06/06 07:32:42;;;;;;;9.97;8.77;;;15.20;99.90;;;;;;5040454;28;20570;-71
2021/06/06 07:35:10;;;;;;;11.10;8.27;;;15.20;99.90;;;;;;5041510;28;20982;-71
2021/06/06 07:37:36;;;;;;;8.37;7.40;;;15.20;99.90;;;;;;5040269;28;21008;-71
2021/06/06 07:40:05;;;;;;;8.50;7.70;;;15.20;99.90;;;;;;5039564;28;20498;-71
2021/06/06 07:42:32;;;;;;;9.50;6.97;;;15.20;99.90;;;;;;5039764;28;20468;-71
2021/06/06 07:44:58;;;;;;;9.20;7.40;;;15.20;99.90;;;;;;5040372;28;20463;-69
2021/06/06 07:47:24;;;;;;;9.10;7.30;;;15.20;99.90;;;;;;5044156;28;20479;-70
2021/06/06 07:49:52;;;;;;;8.87;7.30;;;15.20;99.90;;;;;;5051332;28;20521;-71
2021/06/06 07:52:18;;;;;;;9.03;7.20;;;15.20;99.90;;;;;;5051391;28;20487;-73
2021/06/06 07:54:45;;;;;;;9.20;7.13;;;15.30;99.90;;;;;;5051629;28;20840;-73
2021/06/06 07:57:11;;;;;;;9.37;6.80;;;15.30;99.90;;;;;;5047401;28;20472;-73
2021/06/06 07:59:38;;;;;;;11.57;8.10;;;15.30;99.90;;;;;;5050628;28;20494;-73
2021/06/06 08:02:05;;;;;;;12.37;8.53;;;15.30;99.90;;;;;;5050762;28;20452;-73
2021/06/06 08:04:31;;;;;;;11.60;8.00;;;15.30;99.90;;;;;;5051438;28;20473;-73
2021/06/06 08:07:00;;;;;;;11.90;9.80;;;15.30;99.90;;;;;;5051081;28;20489;-73
2021/06/06 08:09:27;;;;;;;12.53;8.03;;;15.20;99.90;;;;;;5050897;28;20470;-72
2021/06/06 08:11:53;;;;;;;10.30;8.40;;;15.20;99.90;;;;;;5045735;28;20541;-72
2021/06/06 08:14:19;;;;;;;13.97;8.67;;;15.20;99.90;;;;;;5048357;28;20561;-73
2021/06/06 08:16:46;;;;;;;11.20;8.13;;;15.30;99.90;;;;;;5050651;28;20467;-73
2021/06/06 08:22:36;;;;;;;10.20;7.80;;;15.20;99.90;;;;;;5031967;28;21087;-73
2021/06/06 08:25:04;;;;;;;12.13;8.67;;;15.20;99.90;;;;;;5037012;28;20468;-73
2021/06/06 08:27:30;;;;;;;13.40;9.07;;;15.20;99.90;;;;;;5037652;28;20511;-73
2021/06/06 08:29:57;;;;;;;14.00;8.77;;;15.20;99.90;;;;;;5048700;28;21068;-73
2021/06/06 08:32:23;;;;;;;13.60;8.97;;;15.20;99.90;;;;;;5049073;28;20523;-73
2021/06/06 08:34:49;;;;;;;13.40;9.77;;;15.20;99.90;;;;;;5050558;28;20463;-73
2021/06/06 08:37:15;;;;;;;13.80;9.50;;;15.30;99.90;;;;;;5046790;28;20846;-73
2021/06/06 08:39:43;;;;;;;16.00;9.40;;;15.20;99.90;;;;;;5049218;28;20466;-73
2021/06/06 08:42:17;;;;;;;13.03;9.70;;;15.20;99.90;;;;;;5050152;28;20467;-73
2021/06/06 08:44:46;;;;;;;9.73;8.43;;;15.20;99.90;;;;;;5047289;28;20936;-71
2021/06/06 08:47:15;;;;;;;11.17;8.77;;;15.20;99.90;;;;;;5049896;28;20459;-71
2021/06/06 08:49:43;;;;;;;15.70;8.60;;;15.20;99.90;;;;;;5050042;28;20463;-70
2021/06/06 08:52:27;;;;;;;10.37;8.60;;;15.20;99.90;;;;;;5049554;28;20919;-70
2021/06/06 08:55:01;;;;;;;14.73;9.50;;;15.20;99.90;;;;;;5050373;28;20475;-71
2021/06/06 08:57:34;;;;;;;12.17;9.13;;;15.30;99.90;;;;;;5047394;28;20492;-70
2021/06/06 09:00:01;;;;;;;13.13;9.13;;;15.30;99.90;;;;;;5050113;28;20513;-72
2021/06/06 09:02:34;;;;;;;15.97;9.57;;;15.30;99.90;;;;;;5049379;28;20467;-71
2021/06/06 09:05:01;;;;;;;13.00;10.57;;;15.40;99.90;;;;;;5050432;28;20487;-71
2021/06/06 09:07:35;;;;;;;14.90;9.70;;;15.40;99.90;;;;;;5050250;28;20480;-71
2021/06/06 09:10:07;;;;;;;16.40;10.10;;;15.40;99.90;;;;;;5050151;28;20463;-71
2021/06/06 09:12:33;;;;;;;14.77;10.90;;;15.40;99.90;;;;;;5049737;28;20495;-71
2021/06/06 09:14:59;;;;;;;15.57;10.33;;;15.40;99.90;;;;;;5050086;28;20455;-71
2021/06/06 09:17:39;;;;;;;16.23;10.67;;;15.40;99.90;;;;;;5049995;28;20482;-71
2021/06/06 09:20:20;;;;;;;14.83;10.07;;;15.40;99.90;;;;;;5050322;28;20479;-71
2021/06/06 09:22:46;;;;;;;16.07;10.43;;;15.40;99.90;;;;;;5049075;28;20459;-71
2021/06/06 09:25:20;;;;;;;14.87;10.50;;;15.50;99.90;;;;;;5050258;28;20467;-71
2021/06/06 09:27:58;;;;;;;15.00;10.20;;;15.40;99.90;;;;;;5049404;28;20515;-71
2021/06/06 09:30:24;;;;;;;13.27;9.43;;;15.40;99.90;;;;;;5049665;28;20465;-71
2021/06/06 09:32:51;;;;;;;14.87;9.57;;;15.50;99.90;;;;;;5049255;28;20548;-71
2021/06/06 09:35:24;;;;;;;14.73;10.33;;;15.50;99.90;;;;;;5049324;28;20469;-71
2021/06/06 09:37:55;;;;;;;13.13;10.17;;;15.40;99.90;;;;;;5050124;28;20484;-71
2021/06/06 09:40:32;;;;;;;13.43;10.53;;;15.50;99.90;;;;;;5049612;28;20989;-71
2021/06/06 09:42:59;;;;;;;13.77;10.20;;;15.50;99.90;;;;;;5060108;28;20962;-71
2021/06/06 09:45:28;;;;;;;13.73;10.77;;;15.50;99.90;;;;;;5064400;28;20462;-72
2021/06/06 09:48:05;;;;;;;16.00;10.73;;;15.60;99.90;;;;;;5053652;28;20490;-71
2021/06/06 09:50:36;;;;;;;14.87;9.40;;;15.60;99.90;;;;;;5053627;28;20459;-71
2021/06/06 09:53:16;;;;;;;14.63;10.93;;;15.70;99.90;;;;;;5053016;28;20490;-71
2021/06/06 09:55:45;;;;;;;11.20;9.53;;;15.60;99.90;;;;;;5053604;28;20471;-71
2021/06/06 09:58:16;;;;;;;11.93;9.70;;;15.70;99.90;;;;;;5053692;28;20475;-71
2021/06/06 10:00:44;;;;;;;13.10;10.27;;;15.60;99.90;;;;;;5053475;28;20474;-71
2021/06/06 10:03:36;;;;;;;12.80;10.63;;;15.70;99.90;;;;;;5053256;28;20968;-71
2021/06/06 10:06:16;;;;;;;11.30;10.00;;;15.60;99.90;;;;;;5038558;28;20459;-69
2021/06/06 10:08:43;;;;;;;14.27;12.03;;;15.60;99.90;;;;;;5053445;28;20478;-71
2021/06/06 10:11:12;;;;;;;16.07;11.70;;;15.50;99.90;;;;;;5052781;28;20478;-71
2021/06/06 10:13:42;;;;;;;15.07;12.93;;;15.50;99.90;;;;;;5053486;28;20471;-71
2021/06/06 10:16:11;;;;;;;18.50;12.60;;;15.50;99.90;;;;;;5053511;28;20466;-71
2021/06/06 10:18:43;;;;;;;14.93;12.20;;;15.50;99.90;;;;;;5053230;28;20478;-71
2021/06/06 10:21:14;;;;;;;18.20;12.70;;;15.50;99.90;;;;;;5053466;28;20471;-71
2021/06/06 10:23:43;;;;;;;15.50;12.23;;;15.60;99.90;;;;;;5052963;28;20486;-70
2021/06/06 10:26:15;;;;;;;18.27;13.37;;;15.60;99.90;;;;;;5050096;28;20451;-70
2021/06/06 10:28:47;;;;;;;19.77;15.00;;;15.60;99.90;;;;;;5052744;28;20479;-71
2021/06/06 10:31:18;;;;;;;21.10;14.07;;;15.60;99.90;;;;;;5052884;28;21134;-71
2021/06/06 10:33:50;;;;;;;20.20;15.20;;;15.60;99.90;;;;;;5052419;28;20463;-71
2021/06/06 10:36:20;;;;;;;18.73;14.60;;;15.60;99.90;;;;;;5052776;28;20459;-71
2021/06/06 10:38:47;;;;;;;21.20;15.33;;;15.70;99.90;;;;;;5050599;28;20487;-71
2021/06/06 10:41:19;;;;;;;20.00;16.03;;;15.70;99.90;;;;;;5050912;28;20455;-71
2021/06/06 10:43:50;;;;;;;20.53;16.13;;;15.70;99.90;;;;;;5050281;28;20455;-71
2021/06/06 10:46:22;;;;;;;21.30;16.07;;;15.70;99.90;;;;;;5051598;28;20829;-71
2021/06/06 10:48:52;;;;;;;20.47;16.27;;;15.70;99.90;;;;;;5042489;28;20493;-71
2021/06/06 10:51:32;;;;;;;20.13;16.33;;;15.70;99.90;;;;;;5051663;28;20487;-71
2021/06/06 10:54:00;;;;;;;22.50;16.13;;;15.70;99.90;;;;;;5051804;28;20938;-71
2021/06/06 10:56:41;;;;;;;21.97;16.27;;;15.60;99.90;;;;;;5052197;28;20456;-72
2021/06/06 10:59:09;;;;;;;23.57;16.77;;;15.60;99.90;;;;;;5052067;28;20486;-71
2021/06/06 11:01:51;;;;;;;20.77;16.40;;;15.60;99.90;;;;;;5052261;28;20483;-72
2021/06/06 11:04:22;;;;;;;29.17;17.80;;;15.70;99.90;;;;;;5052002;28;20816;-71
2021/06/06 11:07:03;;;;;;;22.60;17.00;;;15.70;99.90;;;;;;5052276;28;20825;-71
2021/06/06 11:09:32;;;;;;;22.53;17.87;;;15.80;99.90;;;;;;5052226;28;20880;-71
2021/06/06 11:12:02;;;;;;;27.97;21.10;;;15.80;99.90;;;;;;5049775;28;20484;-71
2021/06/06 11:14:37;;;;;;;29.50;21.40;;;15.80;99.90;;;;;;5052023;28;20467;-71
2021/06/06 11:17:11;;;;;;;29.53;20.27;;;15.70;99.90;;;;;;5051431;28;20459;-72
2021/06/06 11:19:38;;;;;;;26.30;19.63;;;15.70;99.90;;;;;;5051591;28;20467;-71
2021/06/06 11:22:30;;;;;;;32.23;23.00;;;15.80;99.90;;;;;;5051164;28;20854;-72
2021/06/06 11:24:57;;;;;;;30.97;21.80;;;15.80;99.90;;;;;;5037320;28;20467;-72
2021/06/06 11:27:32;;;;;;;36.07;25.07;;;15.90;99.90;;;;;;5051299;28;20504;-71
2021/06/06 11:30:04;;;;;;;33.33;25.70;;;15.90;99.90;;;;;;5051690;28;20554;-72
2021/06/06 11:32:37;;;;;;;39.90;25.60;;;15.80;99.90;;;;;;5036549;28;21002;-72
2021/06/06 11:35:27;;;;;;;40.47;27.63;;;15.80;99.90;;;;;;5031479;28;20480;-72
2021/06/06 11:37:57;;;;;;;39.37;25.70;;;15.80;99.90;;;;;;5031629;28;20485;-72
2021/06/06 11:40:39;;;;;;;39.77;27.70;;;15.70;99.90;;;;;;5031354;28;20889;-72
2021/06/06 11:43:29;;;;;;;40.57;26.40;;;15.70;99.90;;;;;;5034119;28;20832;-72
2021/06/06 11:46:10;;;;;;;43.47;28.70;;;15.80;99.90;;;;;;5047012;28;20562;-72
2021/06/06 11:48:45;;;;;;;39.07;26.53;;;15.70;99.90;;;;;;5051364;28;20490;-72
2021/06/06 11:51:22;;;;;;;45.77;28.30;;;15.70;99.90;;;;;;5050805;28;20463;-71
2021/06/06 11:53:48;;;;;;;41.73;27.30;;;15.60;99.90;;;;;;5051233;28;20470;-71
2021/06/06 11:56:16;;;;;;;44.10;28.27;;;15.60;99.90;;;;;;5050901;28;20460;-72
2021/06/06 11:58:49;;;;;;;38.60;26.13;;;15.60;99.90;;;;;;5051290;28;20557;-71
2021/06/06 12:01:18;;;;;;;51.57;31.30;;;15.60;99.90;;;;;;5050852;28;20467;-73
2021/06/06 12:03:50;;;;;;;47.93;28.70;;;15.60;99.90;;;;;;5051416;28;20464;-71
2021/06/06 12:06:26;;;;;;;47.30;30.37;;;15.60;99.90;;;;;;5050508;28;21177;-71
2021/06/06 12:08:55;;;;;;;46.07;30.60;;;15.60;99.90;;;;;;5051162;28;20478;-71
2021/06/06 12:11:26;;;;;;;38.73;25.70;;;15.70;99.90;;;;;;5050237;28;20460;-71
2021/06/06 12:14:07;;;;;;;46.20;30.50;;;15.70;99.90;;;;;;5051091;28;20463;-71
2021/06/06 12:16:34;;;;;;;47.73;30.83;;;15.70;99.90;;;;;;5040716;28;20460;-71
2021/06/06 12:19:06;;;;;;;47.57;30.00;;;15.80;99.90;;;;;;5038373;28;20849;-71
2021/06/06 12:21:36;;;;;;;50.60;32.40;;;15.80;99.90;;;;;;5038067;28;20456;-71
2021/06/06 12:24:10;;;;;;;40.63;29.43;;;15.80;99.90;;;;;;5029252;28;20452;-71
2021/06/06 12:26:42;;;;;;;45.27;29.67;;;15.80;99.90;;;;;;5030746;28;20561;-71
2021/06/06 12:29:11;;;;;;;44.80;29.43;;;15.80;99.90;;;;;;5030160;28;20877;-70
2021/06/06 12:31:40;;;;;;;39.93;28.80;;;15.90;99.90;;;;;;5030572;28;20488;-70
2021/06/06 12:34:15;;;;;;;41.80;26.87;;;15.90;99.90;;;;;;5044964;28;20609;-70
2021/06/06 12:36:41;;;;;;;33.67;25.43;;;15.90;99.90;;;;;;5050641;28;20973;-70
2021/06/06 12:39:10;;;;;;;33.77;23.77;;;16.00;99.90;;;;;;5049930;28;20595;-70
2021/06/06 12:41:40;;;;;;;29.87;21.87;;;16.00;99.90;;;;;;5049925;28;20464;-70
2021/06/06 12:44:09;;;;;;;31.93;23.07;;;16.00;99.90;;;;;;5049889;28;20459;-70
2021/06/06 12:46:49;;;;;;;29.33;21.73;;;16.10;99.90;;;;;;5049937;28;20880;-70
2021/06/06 12:49:16;;;;;;;25.80;20.57;;;16.20;99.90;;;;;;5049760;28;20548;-70
2021/06/06 12:51:47;;;;;;;26.83;20.90;;;16.10;99.90;;;;;;5049674;28;20491;-70
2021/06/06 12:54:16;;;;;;;25.47;20.57;;;16.10;99.90;;;;;;5049395;28;20463;-70